createdAt,value
2018-03-28T00:03:01.511Z,12.10
2018-03-28T00:08:06.103Z,11.40
2018-03-28T00:13:09.187Z,11.93
2018-03-28T00:18:12.659Z,11.95
2018-03-28T00:23:15.743Z,12.23
2018-03-28T00:28:19.586Z,11.73
2018-03-28T00:33:24.020Z,12.10
2018-03-28T00:38:27.875Z,11.87
2018-03-28T00:43:32.454Z,12.53
2018-03-28T00:48:35.545Z,11.60
2018-03-28T00:53:39.983Z,11.20
2018-03-28T00:58:44.584Z,11.07
2018-03-28T01:03:49.030Z,10.33
2018-03-28T01:08:52.491Z,9.07
2018-03-28T01:13:57.090Z,9.83
2018-03-28T01:19:00.944Z,10.37
2018-03-28T01:24:04.783Z,10.27
2018-03-28T01:29:08.272Z,9.27
2018-03-28T01:34:11.351Z,9.38
2018-03-28T01:39:15.196Z,9.73
2018-03-28T01:44:19.621Z,8.63
2018-03-28T01:49:23.083Z,8.40
2018-03-28T01:54:26.171Z,9.77
2018-03-28T01:59:30.598Z,8.07
2018-03-28T02:04:35.186Z,8.07
2018-03-28T02:09:39.622Z,7.43
2018-03-28T02:14:44.052Z,8.30
2018-03-28T02:19:48.264Z,7.63
2018-03-28T02:24:52.480Z,8.30
2018-03-28T02:29:57.056Z,8.80
2018-03-28T02:35:01.770Z,8.90
2018-03-28T02:40:05.255Z,8.17
2018-03-28T02:45:09.678Z,8.10
2018-03-28T02:50:13.537Z,7.53
2018-03-28T02:55:17.389Z,8.67
2018-03-28T03:00:21.232Z,8.35
2018-03-28T03:05:25.683Z,9.00
2018-03-28T03:10:30.274Z,9.10
2018-03-28T03:15:34.744Z,9.87
2018-03-28T03:20:38.591Z,10.23
2018-03-28T03:25:43.029Z,9.40
2018-03-28T03:30:47.261Z,9.80
2018-03-28T03:35:51.708Z,9.90
2018-03-28T03:40:56.307Z,9.80
2018-03-28T03:46:00.541Z,10.93
2018-03-28T03:51:03.636Z,10.37
2018-03-28T03:56:07.487Z,9.47
2018-03-28T04:01:11.349Z,10.32
2018-03-28T04:06:14.448Z,10.90
2018-03-28T04:11:19.048Z,9.40
2018-03-28T04:16:23.508Z,9.90
2018-03-28T04:21:27.380Z,10.47
2018-03-28T04:26:31.820Z,9.43
2018-03-28T04:31:35.680Z,10.20
2018-03-28T04:36:38.894Z,10.10
2018-03-28T04:41:41.872Z,9.83
2018-03-28T04:46:44.977Z,8.57
2018-03-28T04:51:49.420Z,9.90
2018-03-28T04:56:53.285Z,10.07
2018-03-28T05:01:57.744Z,8.83
2018-03-28T05:07:02.192Z,9.13
2018-03-28T05:12:05.283Z,8.87
2018-03-28T05:17:08.776Z,8.97
2018-03-28T05:22:13.230Z,7.90
2018-03-28T05:27:17.099Z,8.63
2018-03-28T05:32:20.944Z,8.00
2018-03-28T05:37:25.911Z,8.77
2018-03-28T05:42:30.363Z,10.10
2018-03-28T05:47:34.593Z,8.90
2018-03-28T05:52:38.077Z,8.30
2018-03-28T05:57:41.935Z,9.27
2018-03-28T06:02:46.373Z,9.27
2018-03-28T06:07:50.232Z,10.60
2018-03-28T06:12:54.673Z,10.70
2018-03-28T06:17:59.251Z,12.53
2018-03-28T06:23:02.736Z,12.50
2018-03-28T06:28:07.349Z,11.23
2018-03-28T06:33:11.199Z,11.37
2018-03-28T06:38:14.283Z,10.03
2018-03-28T06:43:18.728Z,9.97
2018-03-28T06:48:21.825Z,7.87
2018-03-28T06:53:24.910Z,7.23
2018-03-28T06:58:28.760Z,7.60
2018-03-28T07:03:32.248Z,6.80
2018-03-28T07:08:36.865Z,8.27
2018-03-28T07:13:41.315Z,8.20
2018-03-28T07:18:44.812Z,9.50
2018-03-28T07:23:49.051Z,10.00
2018-03-28T07:28:53.669Z,10.93
2018-03-28T07:33:57.139Z,10.53
2018-03-28T07:39:01.744Z,11.90
2018-03-28T07:44:05.583Z,13.53
2018-03-28T07:49:09.064Z,12.37
2018-03-28T07:54:12.152Z,14.27
2018-03-28T07:59:15.640Z,14.50
2018-03-28T08:04:18.728Z,15.87
2018-03-28T08:09:23.774Z,16.20
2018-03-28T08:14:27.269Z,17.53
2018-03-28T08:19:30.370Z,15.17
2018-03-28T08:24:33.466Z,14.53
2018-03-28T08:29:37.320Z,14.87
2018-03-28T08:34:41.743Z,13.93
2018-03-28T08:39:46.339Z,13.47
2018-03-28T08:44:49.830Z,14.07
2018-03-28T08:49:54.070Z,13.53
2018-03-28T08:54:57.566Z,13.37
2018-03-28T09:00:01.023Z,13.33
2018-03-28T09:05:05.476Z,13.67
2018-03-28T09:10:10.076Z,14.47
2018-03-28T09:15:13.572Z,13.00
2018-03-28T09:20:16.672Z,12.90
2018-03-28T09:25:20.916Z,12.47
2018-03-28T09:30:25.147Z,11.30
2018-03-28T09:35:29.015Z,11.23
2018-03-28T09:40:33.464Z,11.17
2018-03-28T09:45:37.338Z,10.63
2018-03-28T09:50:41.976Z,9.77
2018-03-28T09:55:45.459Z,9.27
2018-03-28T10:00:48.559Z,10.60
2018-03-28T10:05:51.684Z,10.80
2018-03-28T10:10:55.904Z,9.83
2018-03-28T10:16:00.503Z,9.80
2018-03-28T10:21:03.593Z,10.37
2018-03-28T10:26:08.180Z,9.97
2018-03-28T10:31:12.432Z,9.83
2018-03-28T10:36:15.510Z,9.03
2018-03-28T10:41:20.746Z,7.23
2018-03-28T10:46:24.210Z,6.07
2018-03-28T10:51:28.627Z,5.60
2018-03-28T10:56:32.492Z,5.43
2018-03-28T11:01:35.588Z,5.73
2018-03-28T11:06:38.708Z,5.07
2018-03-28T11:11:41.799Z,5.53
2018-03-28T11:16:44.897Z,5.57
2018-03-28T11:21:49.124Z,5.07
2018-03-28T11:26:52.203Z,5.83
2018-03-28T11:31:55.300Z,5.40
2018-03-28T11:36:59.595Z,6.00
2018-03-28T11:42:03.983Z,6.07
2018-03-28T11:47:08.423Z,5.63
2018-03-28T11:52:11.547Z,5.63
2018-03-28T11:57:15.790Z,6.20
2018-03-28T12:02:20.014Z,5.97
2018-03-28T12:07:25.581Z,5.93
2018-03-28T12:12:29.814Z,5.90
2018-03-28T12:17:33.309Z,7.00
2018-03-28T12:22:36.400Z,5.60
2018-03-28T12:27:40.235Z,5.80
2018-03-28T12:32:44.459Z,6.83
2018-03-28T12:37:47.570Z,6.03
2018-03-28T12:42:50.702Z,7.10
2018-03-28T12:47:55.132Z,6.90
2018-03-28T12:52:59.574Z,7.17
2018-03-28T12:58:03.798Z,7.30
2018-03-28T13:03:08.257Z,7.40
2018-03-28T13:08:12.715Z,7.57
2018-03-28T13:13:17.325Z,8.30
2018-03-28T13:18:21.920Z,8.73
2018-03-28T13:23:26.372Z,8.87
2018-03-28T13:28:29.843Z,8.83
2018-03-28T13:33:32.944Z,9.20
2018-03-28T13:38:37.159Z,10.53
2018-03-28T13:43:41.008Z,10.43
2018-03-28T13:48:45.467Z,11.67
2018-03-28T13:53:48.964Z,11.00
2018-03-28T13:58:52.860Z,10.90
2018-03-28T14:03:56.355Z,11.77
2018-03-28T14:09:00.225Z,12.03
2018-03-28T14:14:03.710Z,11.30
2018-03-28T14:19:07.952Z,9.87
2018-03-28T14:24:11.020Z,7.37
2018-03-28T14:29:15.620Z,6.90
2018-03-28T14:34:19.153Z,7.43
2018-03-28T14:39:23.000Z,7.30
2018-03-28T14:44:27.244Z,7.10
2018-03-28T14:49:31.099Z,6.87
2018-03-28T14:54:34.496Z,6.80
2018-03-28T14:59:38.718Z,6.33
2018-03-28T15:04:43.155Z,6.23
2018-03-28T15:09:47.034Z,6.37
2018-03-28T15:14:50.110Z,6.30
2018-03-28T15:19:54.550Z,6.80
2018-03-28T15:24:59.148Z,6.20
2018-03-28T15:30:03.579Z,5.50
2018-03-28T15:35:07.090Z,5.17
2018-03-28T15:40:11.545Z,4.43
2018-03-28T15:45:16.135Z,4.93
2018-03-28T15:50:20.582Z,4.80
2018-03-28T15:55:25.184Z,3.90
2018-03-28T16:00:28.276Z,4.10
2018-03-28T16:05:31.387Z,3.43
2018-03-28T16:10:35.828Z,3.17
2018-03-28T16:15:40.062Z,3.12
2018-03-28T16:20:43.560Z,3.37
2018-03-28T16:25:48.024Z,3.80
2018-03-28T16:30:53.404Z,3.50
2018-03-28T16:35:58.027Z,3.43
2018-03-28T16:41:02.654Z,3.63
2018-03-28T16:46:07.119Z,3.40
2018-03-28T16:51:12.605Z,3.70
2018-03-28T16:56:16.476Z,4.13
2018-03-28T17:01:21.085Z,4.00
2018-03-28T17:06:25.813Z,3.92
2018-03-28T17:11:29.665Z,4.20
2018-03-28T17:16:34.467Z,3.50
2018-03-28T17:21:38.717Z,3.00
2018-03-28T17:26:42.217Z,3.50
2018-03-28T17:31:46.828Z,3.30
2018-03-28T17:36:51.282Z,3.10
2018-03-28T17:41:55.138Z,3.33
2018-03-28T17:46:59.578Z,3.90
2018-03-28T17:52:02.683Z,6.63
2018-03-28T17:57:06.545Z,3.63
2018-03-28T18:02:10.762Z,3.90
2018-03-28T18:07:16.606Z,3.47
2018-03-28T18:12:19.921Z,5.70
2018-03-28T18:17:23.049Z,4.13
2018-03-28T18:22:27.940Z,2.40
2018-03-28T18:27:31.808Z,3.10
2018-03-28T18:32:38.121Z,2.33
2018-03-28T18:37:41.276Z,2.60
2018-03-28T18:42:44.442Z,2.87
2018-03-28T18:47:47.557Z,3.13
2018-03-28T18:53:10.814Z,4.43
2018-03-28T18:58:14.356Z,4.70
2018-03-28T19:03:17.483Z,4.57
2018-03-28T19:08:20.590Z,4.93
2018-03-28T19:13:24.472Z,5.40
2018-03-28T19:18:27.939Z,6.13
2018-03-28T19:23:32.345Z,7.03
2018-03-28T19:28:35.415Z,6.13
2018-03-28T19:33:38.885Z,6.30
2018-03-28T19:38:42.798Z,6.50
2018-03-28T19:43:46.346Z,6.77
2018-03-28T19:48:49.856Z,6.60
2018-03-28T19:53:53.697Z,6.50
2018-03-28T19:58:57.976Z,6.93
2018-03-28T20:04:01.053Z,7.82
2018-03-28T20:09:06.408Z,9.10
2018-03-28T20:14:09.467Z,9.30
2018-03-28T20:19:12.527Z,8.90
2018-03-28T20:24:15.592Z,8.30
2018-03-28T20:29:18.690Z,10.13
2018-03-28T20:34:21.773Z,11.27
2018-03-28T20:39:24.854Z,11.47
2018-03-28T20:44:27.944Z,13.70
2018-03-28T20:49:31.763Z,13.37
2018-03-28T20:54:36.105Z,14.23
2018-03-28T20:59:39.225Z,13.23
2018-03-28T21:04:42.301Z,12.70
2018-03-28T21:09:46.560Z,11.80
2018-03-28T21:14:49.604Z,7.93
2018-03-28T21:19:52.668Z,7.80
2018-03-28T21:25:03.464Z,7.33
2018-03-28T21:30:06.609Z,6.87
2018-03-28T21:35:09.684Z,6.47
2018-03-28T21:40:13.908Z,7.00
2018-03-28T21:45:16.999Z,7.20
2018-03-28T21:50:21.303Z,7.33
2018-03-28T21:55:24.776Z,8.73
2018-03-28T22:00:28.641Z,8.57
2018-03-28T22:05:31.704Z,8.40
2018-03-28T22:10:34.848Z,8.33
2018-03-28T22:15:37.916Z,9.20
2018-03-28T22:20:41.407Z,9.80
2018-03-28T22:25:45.244Z,9.63
2018-03-28T22:30:48.328Z,10.43
2018-03-28T22:35:51.392Z,9.70
2018-03-28T22:40:54.615Z,9.50
2018-03-28T22:45:57.703Z,8.63
2018-03-28T22:51:00.788Z,8.63
2018-03-28T22:56:03.864Z,8.17
2018-03-28T23:01:18.147Z,8.63
2018-03-28T23:06:21.973Z,8.75
2018-03-28T23:11:26.175Z,7.77
2018-03-28T23:16:29.245Z,8.45
2018-03-28T23:21:32.360Z,7.40
2018-03-28T23:26:36.570Z,8.07
2018-03-28T23:31:41.155Z,7.27
2018-03-28T23:36:44.244Z,7.70
2018-03-28T23:41:47.313Z,8.07
2018-03-28T23:46:51.553Z,8.23
2018-03-28T23:51:54.603Z,8.70
2018-03-28T23:56:57.691Z,9.90
